Time;durP1;ratioP1;P1;durP2;ratioP2;P2;SDS_P1;SDS_P2;PMS_P1;PMS_P2;Temp;Humidity;BMP_temperature;BMP_pressure;BME280_temperature;BME280_humidity;BME280_pressure;Samples;Min_cycle;Max_cycle;Signal;HPM_P1;HPM_P2
2021/03/21 00:01:09;;;;;;;4.87;3.87;;;5.20;99.90;;;;;;4980712;28;20174;-57
2021/03/21 00:03:35;;;;;;;4.80;4.23;;;5.20;99.90;;;;;;4994552;28;20242;-56
2021/03/21 00:06:00;;;;;;;6.00;4.80;;;5.20;99.90;;;;;;4981322;28;20654;-58
2021/03/21 00:08:28;;;;;;;6.63;4.83;;;5.20;99.90;;;;;;4999971;28;20217;-58
2021/03/21 00:11:08;;;;;;;12.20;5.40;;;5.20;99.90;;;;;;4995163;28;20246;-51
2021/03/21 00:13:34;;;;;;;9.13;5.57;;;5.20;99.90;;;;;;5001159;28;20254;-54
2021/03/21 00:16:02;;;;;;;6.00;4.57;;;5.20;99.90;;;;;;4999656;28;20192;-56
2021/03/21 00:18:33;;;;;;;9.00;4.30;;;5.30;99.90;;;;;;4997307;28;20655;-53
2021/03/21 00:20:59;;;;;;;5.80;3.73;;;5.30;99.90;;;;;;4987882;28;20220;-57
2021/03/21 00:23:24;;;;;;;5.33;3.70;;;5.30;99.90;;;;;;4999326;28;20233;-53
2021/03/21 00:25:50;;;;;;;6.07;4.20;;;5.30;99.90;;;;;;4983695;28;20165;-59
2021/03/21 00:28:23;;;;;;;7.23;3.87;;;5.30;99.90;;;;;;4995722;28;20216;-55
2021/03/21 00:30:50;;;;;;;6.47;4.07;;;5.30;99.90;;;;;;4983971;28;20588;-59
2021/03/21 00:33:18;;;;;;;5.87;3.60;;;5.30;99.90;;;;;;4980030;28;20192;-57
2021/03/21 00:35:44;;;;;;;5.40;3.30;;;5.30;99.90;;;;;;5006691;28;20180;-57
2021/03/21 00:38:17;;;;;;;6.47;3.50;;;5.30;99.90;;;;;;4988479;28;20774;-54
2021/03/21 00:40:43;;;;;;;4.70;3.83;;;5.30;99.90;;;;;;5006001;28;20212;-57
2021/03/21 00:43:09;;;;;;;5.23;3.53;;;5.30;99.90;;;;;;5002056;28;20743;-54
2021/03/21 00:45:35;;;;;;;3.60;3.17;;;5.30;99.90;;;;;;5006204;28;20184;-54
2021/03/21 00:48:01;;;;;;;6.90;3.47;;;5.30;99.90;;;;;;5003806;28;20231;-54
2021/03/21 00:50:33;;;;;;;5.97;3.63;;;5.30;99.90;;;;;;5001283;28;20188;-54
2021/03/21 00:52:59;;;;;;;4.33;3.43;;;5.40;99.90;;;;;;4990991;28;20660;-56
2021/03/21 00:55:26;;;;;;;5.40;3.47;;;5.40;99.90;;;;;;4995557;28;20319;-56
2021/03/21 00:57:52;;;;;;;5.53;3.83;;;5.40;99.90;;;;;;4987473;28;20206;-58
2021/03/21 01:00:33;;;;;;;4.53;3.77;;;5.40;99.90;;;;;;4984635;28;20180;-50
2021/03/21 01:02:58;;;;;;;5.30;3.93;;;5.40;99.90;;;;;;4986519;28;20289;-57
2021/03/21 01:05:53;;;;;;;5.90;4.23;;;5.40;99.90;;;;;;4985972;28;20200;-53
2021/03/21 01:08:31;;;;;;;11.97;4.40;;;5.40;99.90;;;;;;4987982;28;20248;-57
2021/03/21 01:11:03;;;;;;;10.43;3.43;;;5.40;99.90;;;;;;4992576;28;20181;-53
2021/03/21 01:13:29;;;;;;;4.60;3.80;;;5.50;99.90;;;;;;5004383;28;20212;-57
2021/03/21 01:15:55;;;;;;;5.33;3.87;;;5.50;99.90;;;;;;5004521;28;20221;-52
2021/03/21 01:18:30;;;;;;;9.07;4.60;;;5.50;99.90;;;;;;5002753;28;20208;-55
2021/03/21 01:20:57;;;;;;;6.13;4.17;;;5.50;99.90;;;;;;4993140;28;20219;-55
2021/03/21 01:23:23;;;;;;;5.93;3.83;;;5.50;99.90;;;;;;5003411;28;20270;-51
2021/03/21 01:25:49;;;;;;;8.83;4.40;;;5.50;99.90;;;;;;4988159;28;20269;-57
2021/03/21 01:28:25;;;;;;;7.30;4.47;;;5.60;99.90;;;;;;4990707;28;20217;-53
2021/03/21 01:30:52;;;;;;;8.73;4.70;;;5.60;99.90;;;;;;4987869;28;20717;-58
2021/03/21 01:33:18;;;;;;;5.57;4.30;;;5.60;99.90;;;;;;4984944;28;20846;-53
2021/03/21 01:35:44;;;;;;;6.50;4.60;;;5.60;99.90;;;;;;4989872;28;20196;-55
2021/03/21 01:38:10;;;;;;;8.93;4.23;;;5.60;99.90;;;;;;5002892;28;20880;-53
2021/03/21 01:40:37;;;;;;;5.80;4.17;;;5.60;99.90;;;;;;4988311;28;20289;-56
2021/03/21 01:43:04;;;;;;;5.60;3.97;;;5.70;99.90;;;;;;4996913;28;20532;-59
2021/03/21 01:45:31;;;;;;;5.93;4.80;;;5.70;99.90;;;;;;4987274;28;20288;-55
2021/03/21 01:47:58;;;;;;;6.37;4.43;;;5.70;99.90;;;;;;5000768;28;20211;-57
2021/03/21 01:50:26;;;;;;;6.83;4.30;;;5.70;99.90;;;;;;4994157;28;20181;-54
2021/03/21 01:52:53;;;;;;;7.03;4.17;;;5.70;99.90;;;;;;5006341;28;20598;-58
2021/03/21 01:55:21;;;;;;;6.53;4.10;;;5.70;99.90;;;;;;5001884;28;20181;-51
2021/03/21 01:57:47;;;;;;;6.37;4.10;;;5.70;99.90;;;;;;4990740;28;20904;-55
2021/03/21 02:00:13;;;;;;;10.63;4.10;;;5.70;99.90;;;;;;4992092;28;20180;-53
2021/03/21 02:02:39;;;;;;;5.87;4.37;;;5.80;99.90;;;;;;5004923;28;20204;-56
2021/03/21 02:05:06;;;;;;;5.07;4.53;;;5.80;99.90;;;;;;5001728;28;20180;-55
2021/03/21 02:07:59;;;;;;;7.07;4.30;;;5.80;99.90;;;;;;4999409;28;20204;-56
2021/03/21 02:10:40;;;;;;;5.03;3.70;;;5.80;99.90;;;;;;4992212;28;20181;-56
2021/03/21 02:13:14;;;;;;;4.13;3.57;;;5.80;99.90;;;;;;4985925;28;20281;-57
2021/03/21 02:16:02;;;;;;;4.67;3.40;;;5.80;99.90;;;;;;4997702;28;20190;-53
2021/03/21 02:18:47;;;;;;;6.53;3.50;;;5.90;99.90;;;;;;5003948;28;20209;-55
2021/03/21 02:21:37;;;;;;;3.67;3.00;;;5.90;99.90;;;;;;4982070;28;20224;-52
2021/03/21 02:24:26;;;;;;;3.40;2.63;;;5.90;99.90;;;;;;5002304;28;20268;-56
2021/03/21 02:26:57;;;;;;;3.67;2.80;;;5.90;99.90;;;;;;4990540;28;20220;-57
2021/03/21 02:29:47;;;;;;;3.83;3.00;;;5.90;99.90;;;;;;5000644;28;20169;-51
2021/03/21 02:32:42;;;;;;;4.43;3.30;;;5.90;99.90;;;;;;4981878;28;20181;-53
2021/03/21 02:35:19;;;;;;;2.67;2.27;;;5.90;99.90;;;;;;4982139;28;20283;-57
2021/03/21 02:38:06;;;;;;;5.13;2.27;;;5.90;99.90;;;;;;4992106;28;20212;-54
2021/03/21 02:40:50;;;;;;;3.07;2.10;;;5.90;99.90;;;;;;4994423;28;20221;-53
2021/03/21 02:43:22;;;;;;;4.93;2.23;;;5.80;99.90;;;;;;4981983;28;21061;-52
2021/03/21 02:45:52;;;;;;;5.23;2.80;;;5.80;99.90;;;;;;4999888;28;20654;-56
2021/03/21 02:48:27;;;;;;;3.77;1.90;;;5.80;99.90;;;;;;4998956;28;20956;-52
2021/03/21 02:50:58;;;;;;;3.10;2.20;;;5.80;99.90;;;;;;4989265;28;20641;-58
2021/03/21 02:53:35;;;;;;;5.47;2.17;;;5.80;99.90;;;;;;4990715;28;20215;-54
2021/03/21 02:56:03;;;;;;;4.77;2.20;;;5.80;99.90;;;;;;5001935;28;20247;-58
2021/03/21 02:58:36;;;;;;;3.10;2.30;;;5.80;99.90;;;;;;4989435;28;20220;-54
2021/03/21 03:01:01;;;;;;;3.17;2.47;;;5.80;99.90;;;;;;5001904;28;20196;-55
2021/03/21 03:03:29;;;;;;;4.33;2.93;;;5.80;99.90;;;;;;4982534;28;20189;-53
2021/03/21 03:06:00;;;;;;;4.70;2.53;;;5.80;99.90;;;;;;4982709;28;20169;-54
2021/03/21 03:08:33;;;;;;;3.30;2.23;;;5.80;99.90;;;;;;4993214;28;20208;-56
2021/03/21 03:11:05;;;;;;;6.27;2.67;;;5.80;99.90;;;;;;5001166;28;20319;-55
2021/03/21 03:13:43;;;;;;;5.07;2.70;;;5.80;99.90;;;;;;5003380;28;20181;-57
2021/03/21 03:16:35;;;;;;;3.47;2.70;;;5.80;99.90;;;;;;4977112;28;20291;-56
2021/03/21 03:19:11;;;;;;;4.73;3.00;;;5.80;99.90;;;;;;4996483;28;20533;-56
2021/03/21 03:21:47;;;;;;;6.03;2.87;;;5.80;99.90;;;;;;4984521;28;20235;-57
2021/03/21 03:24:36;;;;;;;6.00;2.70;;;5.80;99.90;;;;;;4979255;28;20333;-50
2021/03/21 03:27:17;;;;;;;6.30;3.00;;;5.80;99.90;;;;;;5002057;28;20189;-59
2021/03/21 03:29:56;;;;;;;5.53;2.67;;;5.80;99.90;;;;;;4985445;28;20201;-53
2021/03/21 03:32:24;;;;;;;5.00;2.60;;;5.80;99.90;;;;;;4997886;28;20483;-57
2021/03/21 03:34:54;;;;;;;6.13;2.67;;;5.80;99.90;;;;;;4984613;28;20177;-58
2021/03/21 03:37:21;;;;;;;4.07;2.13;;;5.80;99.90;;;;;;4988586;28;20212;-55
2021/03/21 03:39:47;;;;;;;4.50;2.30;;;5.70;99.90;;;;;;4997521;28;20216;-53
2021/03/21 03:42:38;;;;;;;3.97;2.20;;;5.80;99.90;;;;;;4994414;28;20239;-57
2021/03/21 03:45:23;;;;;;;10.30;2.07;;;5.70;99.90;;;;;;4990465;28;20193;-58
2021/03/21 03:48:10;;;;;;;4.53;2.07;;;5.80;99.90;;;;;;4997752;28;20213;-55
2021/03/21 03:50:53;;;;;;;7.20;2.57;;;5.80;99.90;;;;;;4995366;28;20514;-56
2021/03/21 03:53:47;;;;;;;3.70;2.10;;;5.80;99.90;;;;;;5000152;28;20191;-53
2021/03/21 03:56:20;;;;;;;10.17;2.73;;;5.70;99.90;;;;;;4994916;28;20188;-54
2021/03/21 03:59:03;;;;;;;10.93;2.67;;;5.70;99.90;;;;;;5002927;28;20209;-55
2021/03/21 04:01:52;;;;;;;8.20;2.80;;;5.70;99.90;;;;;;4980372;28;20271;-54
2021/03/21 04:04:36;;;;;;;8.93;2.10;;;5.70;99.90;;;;;;4990528;28;20808;-50
2021/03/21 04:07:25;;;;;;;7.13;2.13;;;5.70;99.90;;;;;;4985478;28;20200;-57
2021/03/21 04:09:59;;;;;;;4.57;2.13;;;5.70;99.90;;;;;;5001912;28;20257;-58
2021/03/21 04:12:32;;;;;;;12.13;2.03;;;5.70;99.90;;;;;;5002696;28;20927;-54
2021/03/21 04:15:08;;;;;;;4.90;1.67;;;5.70;99.90;;;;;;5000023;28;20192;-58
2021/03/21 04:17:56;;;;;;;11.20;2.73;;;5.70;99.90;;;;;;5000412;28;20751;-54
2021/03/21 04:20:25;;;;;;;10.33;1.93;;;5.70;99.90;;;;;;4996096;28;20235;-52
2021/03/21 04:23:04;;;;;;;12.23;2.63;;;5.70;99.90;;;;;;5003956;28;20209;-58
2021/03/21 04:25:36;;;;;;;12.10;1.87;;;5.70;99.90;;;;;;4988448;28;20201;-56
2021/03/21 04:28:10;;;;;;;11.53;1.87;;;5.70;99.90;;;;;;4990761;28;20244;-58
2021/03/21 04:30:43;;;;;;;10.97;2.20;;;5.70;99.90;;;;;;5007857;28;20183;-52
2021/03/21 04:33:14;;;;;;;11.30;2.40;;;5.70;99.90;;;;;;4981151;28;20338;-55
2021/03/21 04:35:53;;;;;;;18.63;2.37;;;5.70;99.90;;;;;;4994688;28;20268;-56
2021/03/21 04:38:25;;;;;;;11.77;2.30;;;5.70;99.90;;;;;;4999386;28;20211;-52
2021/03/21 04:40:51;;;;;;;14.53;3.57;;;5.70;99.90;;;;;;4992725;28;20182;-54
2021/03/21 04:43:22;;;;;;;6.27;1.93;;;5.70;99.90;;;;;;4990451;28;20847;-56
2021/03/21 04:45:54;;;;;;;15.17;2.47;;;5.70;99.90;;;;;;5006450;28;20586;-56
2021/03/21 04:48:23;;;;;;;16.17;2.30;;;5.70;99.90;;;;;;4989052;28;20201;-55
2021/03/21 04:50:58;;;;;;;15.33;2.90;;;5.70;99.90;;;;;;4995509;28;20253;-58
2021/03/21 04:53:47;;;;;;;10.10;3.10;;;5.60;99.90;;;;;;4986074;28;20173;-56
2021/03/21 04:56:29;;;;;;;11.10;3.07;;;5.60;99.90;;;;;;4982577;28;20185;-53
2021/03/21 04:59:01;;;;;;;17.33;3.10;;;5.50;99.90;;;;;;4996641;28;20309;-56
2021/03/21 05:01:38;;;;;;;16.50;3.47;;;5.50;99.90;;;;;;5004604;28;20469;-55
2021/03/21 05:04:16;;;;;;;21.73;3.70;;;5.40;99.90;;;;;;4981490;28;20913;-58
2021/03/21 05:07:03;;;;;;;12.10;2.63;;;5.30;99.90;;;;;;5000418;28;20184;-53
2021/03/21 05:09:36;;;;;;;15.97;3.80;;;5.30;99.90;;;;;;5003069;28;20185;-55
2021/03/21 05:12:07;;;;;;;24.03;4.20;;;5.20;99.90;;;;;;4984346;28;20720;-54
2021/03/21 05:14:40;;;;;;;18.17;4.63;;;5.20;99.90;;;;;;4995350;28;20216;-57
2021/03/21 05:17:36;;;;;;;18.37;3.80;;;5.10;99.90;;;;;;5002776;28;20700;-58
2021/03/21 05:20:13;;;;;;;24.03;4.13;;;5.10;99.90;;;;;;4987329;28;20199;-57
2021/03/21 05:23:15;;;;;;;15.20;3.87;;;5.10;99.90;;;;;;4986806;28;20212;-58
2021/03/21 05:26:01;;;;;;;17.73;3.23;;;5.10;99.90;;;;;;4993623;28;20192;-56
2021/03/21 05:28:47;;;;;;;22.27;3.77;;;5.10;99.90;;;;;;4986165;28;20402;-56
2021/03/21 05:31:13;;;;;;;28.37;4.43;;;5.10;99.90;;;;;;5003355;28;20168;-57
2021/03/21 05:33:39;;;;;;;14.10;3.23;;;5.10;99.90;;;;;;4991581;28;20196;-54
2021/03/21 05:36:20;;;;;;;23.73;4.00;;;5.10;99.90;;;;;;4993875;28;20185;-54
2021/03/21 05:38:58;;;;;;;14.17;3.17;;;5.10;99.90;;;;;;5003559;28;20681;-57
2021/03/21 05:41:52;;;;;;;21.37;3.30;;;5.00;99.90;;;;;;4984890;28;20173;-56
2021/03/21 05:44:34;;;;;;;22.27;4.37;;;5.10;99.90;;;;;;4989846;28;20901;-57
2021/03/21 05:47:30;;;;;;;22.20;5.23;;;5.10;99.90;;;;;;5002907;28;20215;-57
2021/03/21 05:50:15;;;;;;;19.07;4.60;;;5.10;99.90;;;;;;4984237;28;20189;-56
2021/03/21 05:53:24;;;;;;;29.63;4.70;;;5.10;99.90;;;;;;4997835;28;20671;-55
2021/03/21 05:56:20;;;;;;;23.20;5.10;;;5.10;99.90;;;;;;5021915;28;20576;-55
2021/03/21 05:59:17;;;;;;;28.30;5.40;;;5.10;99.90;;;;;;5020632;28;20226;-56
2021/03/21 06:02:16;;;;;;;26.90;5.00;;;5.10;99.90;;;;;;4988213;28;20220;-57
2021/03/21 06:05:12;;;;;;;19.40;4.87;;;5.10;99.90;;;;;;4979128;28;20597;-56
2021/03/21 06:08:19;;;;;;;27.47;5.07;;;5.10;99.90;;;;;;4997081;28;20203;-56
2021/03/21 06:11:11;;;;;;;17.97;4.17;;;5.10;99.90;;;;;;5004819;28;20172;-57
2021/03/21 06:13:52;;;;;;;21.03;4.90;;;5.10;99.90;;;;;;5019618;28;20279;-56
2021/03/21 06:16:26;;;;;;;23.70;4.07;;;5.10;99.90;;;;;;4990314;28;20551;-56
2021/03/21 06:19:28;;;;;;;19.70;3.80;;;5.10;99.90;;;;;;4981801;28;20178;-54
2021/03/21 06:22:14;;;;;;;28.10;4.50;;;5.10;99.90;;;;;;4975048;28;20208;-56
2021/03/21 06:25:24;;;;;;;23.10;5.07;;;5.10;99.90;;;;;;4983270;28;20189;-58
2021/03/21 06:28:36;;;;;;;22.27;4.70;;;5.20;99.90;;;;;;4993022;28;20205;-56
2021/03/21 06:31:40;;;;;;;22.93;5.57;;;5.20;99.90;;;;;;4995072;28;20181;-53
2021/03/21 06:34:33;;;;;;;22.90;5.17;;;5.20;99.90;;;;;;5003066;28;20787;-54
2021/03/21 06:37:33;;;;;;;22.83;3.93;;;5.20;99.90;;;;;;4981301;28;20908;-51
2021/03/21 06:40:17;;;;;;;26.80;5.70;;;5.20;99.90;;;;;;5001505;28;20244;-52
2021/03/21 06:43:06;;;;;;;28.67;5.43;;;5.30;99.90;;;;;;5003773;28;20271;-56
2021/03/21 06:46:02;;;;;;;27.07;5.60;;;5.30;99.90;;;;;;4999271;28;20210;-58
2021/03/21 06:48:50;;;;;;;29.87;5.17;;;5.30;99.90;;;;;;5006105;28;20238;-55
2021/03/21 06:51:45;;;;;;;24.10;4.30;;;5.30;99.90;;;;;;4986475;28;20211;-56
2021/03/21 06:54:32;;;;;;;29.30;5.80;;;5.30;99.90;;;;;;5013456;28;20212;-55
2021/03/21 06:57:42;;;;;;;29.67;5.20;;;5.40;99.90;;;;;;4991159;28;21127;-56
2021/03/21 07:00:41;;;;;;;28.63;5.10;;;5.40;99.90;;;;;;4987111;28;20244;-57
2021/03/21 07:03:21;;;;;;;24.57;4.83;;;5.50;99.90;;;;;;4997051;28;20308;-54
2021/03/21 07:06:16;;;;;;;24.80;5.30;;;5.50;99.90;;;;;;4973817;28;20189;-56
2021/03/21 07:09:06;;;;;;;27.10;5.37;;;5.50;99.90;;;;;;4991576;28;20304;-52
2021/03/21 07:12:03;;;;;;;25.23;5.20;;;5.60;99.90;;;;;;4995110;28;20689;-53
2021/03/21 07:14:47;;;;;;;27.90;5.23;;;5.70;99.90;;;;;;4998210;28;20986;-55
2021/03/21 07:17:41;;;;;;;33.80;6.63;;;5.60;99.90;;;;;;4991139;28;20707;-53
2021/03/21 07:20:25;;;;;;;29.30;5.90;;;5.70;99.90;;;;;;4987637;28;20190;-55
2021/03/21 07:23:22;;;;;;;23.93;5.20;;;5.70;99.90;;;;;;4994129;28;20217;-53
2021/03/21 07:26:25;;;;;;;27.63;4.87;;;5.70;99.90;;;;;;5000138;28;20197;-55
2021/03/21 07:29:09;;;;;;;23.90;4.97;;;5.80;99.90;;;;;;4992754;28;20296;-55
2021/03/21 07:31:59;;;;;;;20.27;4.73;;;5.80;99.90;;;;;;4993549;28;20193;-51
2021/03/21 07:35:00;;;;;;;22.50;4.80;;;5.80;99.90;;;;;;4994487;28;20385;-50
2021/03/21 07:37:41;;;;;;;28.57;4.97;;;5.90;99.90;;;;;;4982081;28;20212;-53
2021/03/21 07:40:21;;;;;;;19.90;4.13;;;6.00;99.90;;;;;;4991441;28;20219;-55
2021/03/21 07:42:50;;;;;;;26.43;4.80;;;6.10;99.90;;;;;;4997666;28;20287;-57
2021/03/21 07:45:49;;;;;;;21.87;3.47;;;6.10;99.90;;;;;;4996964;28;20250;-54
2021/03/21 07:48:40;;;;;;;30.83;5.70;;;6.20;99.90;;;;;;4992583;28;20776;-57
2021/03/21 07:51:21;;;;;;;26.07;5.20;;;6.20;99.90;;;;;;4997822;28;20176;-54
2021/03/21 07:54:17;;;;;;;19.87;5.17;;;6.20;99.90;;;;;;4996295;28;20202;-56
2021/03/21 07:56:49;;;;;;;26.73;5.30;;;6.20;99.90;;;;;;4991955;28;20197;-56
2021/03/21 07:59:26;;;;;;;26.90;4.90;;;6.20;99.90;;;;;;4998743;28;20768;-52
2021/03/21 08:01:52;;;;;;;24.47;4.83;;;6.20;99.90;;;;;;4982966;28;20204;-53
2021/03/21 08:04:23;;;;;;;28.43;5.63;;;6.20;99.90;;;;;;4989194;28;20192;-56
2021/03/21 08:06:59;;;;;;;24.20;5.63;;;6.20;99.90;;;;;;5002342;28;20193;-55
2021/03/21 08:09:38;;;;;;;28.47;5.43;;;6.30;99.90;;;;;;4983886;28;20271;-51
2021/03/21 08:12:19;;;;;;;25.83;4.43;;;6.30;99.90;;;;;;4995836;28;20188;-57
2021/03/21 08:14:49;;;;;;;31.73;5.30;;;6.40;99.90;;;;;;4997516;28;20196;-55
2021/03/21 08:17:25;;;;;;;24.60;3.83;;;6.40;99.90;;;;;;5008425;28;20279;-58
2021/03/21 08:20:00;;;;;;;22.30;4.70;;;6.40;99.90;;;;;;4998037;28;20498;-57
2021/03/21 08:22:29;;;;;;;18.13;4.27;;;6.40;99.90;;;;;;4999627;28;20215;-57
2021/03/21 08:25:13;;;;;;;29.30;5.17;;;6.40;99.90;;;;;;4986699;28;20557;-57
2021/03/21 08:27:39;;;;;;;20.70;5.00;;;6.50;99.90;;;;;;4995090;28;20216;-52
2021/03/21 08:30:14;;;;;;;23.93;5.07;;;6.50;99.90;;;;;;4999046;28;20185;-58
2021/03/21 08:33:02;;;;;;;31.13;4.77;;;6.50;99.90;;;;;;4998026;28;20275;-56
2021/03/21 08:35:34;;;;;;;18.63;5.17;;;6.60;99.90;;;;;;4995350;28;20780;-56
2021/03/21 08:38:18;;;;;;;15.40;4.37;;;6.60;99.90;;;;;;5002893;28;20250;-58
2021/03/21 08:40:45;;;;;;;28.50;4.80;;;6.70;99.90;;;;;;4990766;28;20188;-56
2021/03/21 08:43:27;;;;;;;19.30;3.80;;;6.60;99.90;;;;;;4996798;28;20212;-56
2021/03/21 08:46:01;;;;;;;17.50;5.20;;;6.60;99.90;;;;;;5002846;28;20282;-55
2021/03/21 08:48:30;;;;;;;20.77;4.87;;;6.70;99.90;;;;;;4998651;28;20196;-54
2021/03/21 08:51:21;;;;;;;22.37;4.63;;;6.80;99.90;;;;;;5002744;28;20276;-56
2021/03/21 08:54:13;;;;;;;17.30;4.87;;;6.90;99.90;;;;;;5006325;28;20279;-58
2021/03/21 08:56:55;;;;;;;24.00;5.23;;;7.00;99.90;;;;;;4999190;28;20184;-56
2021/03/21 08:59:29;;;;;;;29.60;5.10;;;7.00;99.90;;;;;;4995221;28;20885;-56
2021/03/21 09:02:16;;;;;;;20.47;4.33;;;7.00;99.90;;;;;;5005681;28;20241;-53
2021/03/21 09:04:45;;;;;;;17.37;3.00;;;7.00;99.90;;;;;;5004434;28;20169;-52
2021/03/21 09:07:17;;;;;;;16.50;3.80;;;7.00;99.90;;;;;;4997070;28;20209;-54
2021/03/21 09:09:43;;;;;;;19.27;4.27;;;7.00;99.90;;;;;;5001455;28;20278;-57
2021/03/21 09:12:29;;;;;;;12.00;2.83;;;7.00;99.90;;;;;;4989798;28;20199;-53
2021/03/21 09:15:16;;;;;;;15.87;3.73;;;7.10;99.90;;;;;;5000669;28;20196;-56
2021/03/21 09:17:47;;;;;;;17.83;3.20;;;7.10;99.90;;;;;;5004062;28;20302;-54
2021/03/21 09:20:16;;;;;;;17.07;4.17;;;7.00;99.90;;;;;;5001858;28;20268;-56
2021/03/21 09:22:45;;;;;;;21.20;4.23;;;7.00;99.90;;;;;;4998427;28;20213;-56
2021/03/21 09:25:14;;;;;;;20.10;4.50;;;7.00;99.90;;;;;;4996158;28;20181;-57
2021/03/21 09:27:42;;;;;;;17.43;3.73;;;7.10;99.90;;;;;;4997467;28;20231;-54
2021/03/21 09:30:37;;;;;;;15.30;3.73;;;7.20;99.90;;;;;;4997819;28;20235;-57
2021/03/21 09:33:07;;;;;;;20.03;3.93;;;7.20;99.90;;;;;;5004161;28;20642;-58
2021/03/21 09:35:39;;;;;;;18.03;3.53;;;7.30;99.90;;;;;;5002185;28;20211;-53
2021/03/21 09:38:16;;;;;;;18.33;4.07;;;7.40;99.90;;;;;;4996404;28;20211;-55
2021/03/21 09:40:44;;;;;;;11.13;3.07;;;7.40;99.90;;;;;;5004464;28;20168;-56
2021/03/21 09:43:15;;;;;;;10.60;3.27;;;7.50;99.90;;;;;;4979709;28;20790;-57
2021/03/21 09:45:47;;;;;;;13.30;2.73;;;7.50;99.90;;;;;;4998634;28;20211;-52
2021/03/21 09:48:24;;;;;;;17.10;3.53;;;7.60;99.90;;;;;;5000690;28;20206;-57
2021/03/21 09:51:03;;;;;;;18.37;3.20;;;7.70;99.90;;;;;;4999632;28;20214;-57
2021/03/21 09:53:52;;;;;;;15.03;3.37;;;7.70;99.90;;;;;;4996038;28;20260;-55
2021/03/21 09:56:56;;;;;;;15.83;3.17;;;7.70;99.90;;;;;;4998909;28;20234;-54
2021/03/21 09:59:52;;;;;;;14.67;2.90;;;7.80;99.90;;;;;;4988174;28;20283;-55
2021/03/21 10:02:26;;;;;;;13.30;3.27;;;7.70;99.90;;;;;;4995979;28;20265;-53
2021/03/21 10:05:02;;;;;;;13.10;2.87;;;7.70;99.90;;;;;;5004848;28;20194;-51
2021/03/21 10:07:44;;;;;;;12.03;2.53;;;7.70;99.90;;;;;;4995154;28;20299;-53
2021/03/21 10:10:31;;;;;;;14.43;3.13;;;7.70;99.90;;;;;;4996139;28;20219;-56
2021/03/21 10:12:56;;;;;;;10.20;2.83;;;7.80;99.90;;;;;;4980839;28;20205;-57
2021/03/21 10:15:26;;;;;;;14.37;2.93;;;7.80;99.90;;;;;;4999174;28;20173;-53
2021/03/21 10:17:55;;;;;;;15.03;2.93;;;7.90;99.90;;;;;;5000411;28;20227;-56
2021/03/21 10:20:41;;;;;;;14.47;2.57;;;8.00;99.90;;;;;;4985756;28;20204;-50
2021/03/21 10:23:07;;;;;;;12.87;3.10;;;8.10;99.90;;;;;;4996854;28;20215;-56
2021/03/21 10:25:39;;;;;;;11.47;2.63;;;8.10;99.90;;;;;;4999903;28;20211;-52
2021/03/21 10:28:39;;;;;;;12.47;2.80;;;8.10;99.90;;;;;;4984433;28;20338;-54
2021/03/21 10:31:23;;;;;;;10.33;2.57;;;8.10;99.90;;;;;;4989633;28;20180;-53
2021/03/21 10:33:51;;;;;;;14.60;2.63;;;8.10;99.90;;;;;;4989937;28;20216;-57
2021/03/21 10:36:42;;;;;;;9.87;2.70;;;8.10;99.90;;;;;;4991288;28;20320;-57
2021/03/21 10:39:31;;;;;;;13.20;3.87;;;8.10;99.90;;;;;;4995361;28;20282;-53
2021/03/21 10:42:04;;;;;;;10.87;2.70;;;8.20;99.90;;;;;;4980455;28;20275;-56
2021/03/21 10:44:32;;;;;;;9.67;2.40;;;8.10;99.90;;;;;;4989002;28;20288;-55
2021/03/21 10:47:17;;;;;;;13.90;3.00;;;8.10;99.90;;;;;;4993919;28;20258;-57
2021/03/21 10:49:56;;;;;;;10.70;2.23;;;8.10;99.90;;;;;;4996839;28;20177;-56
2021/03/21 10:52:24;;;;;;;12.20;2.53;;;8.10;99.90;;;;;;4992166;28;20196;-56
2021/03/21 10:55:29;;;;;;;10.77;3.63;;;8.10;99.90;;;;;;4990326;28;20248;-56
2021/03/21 10:58:15;;;;;;;12.43;2.30;;;8.20;99.90;;;;;;4992082;28;20267;-53
2021/03/21 11:00:41;;;;;;;10.33;2.33;;;8.30;99.90;;;;;;4991423;28;20762;-56
2021/03/21 11:03:15;;;;;;;10.60;2.60;;;8.30;99.90;;;;;;4992338;28;20291;-57
2021/03/21 11:05:46;;;;;;;6.30;2.43;;;8.40;99.90;;;;;;5004420;28;20172;-55
2021/03/21 11:08:12;;;;;;;11.83;2.10;;;8.30;99.90;;;;;;4997568;28;20205;-56
2021/03/21 11:11:12;;;;;;;8.53;2.33;;;8.30;99.90;;;;;;4993762;28;20186;-57
2021/03/21 11:13:38;;;;;;;6.33;2.13;;;8.30;99.90;;;;;;4983928;28;20290;-56
2021/03/21 11:16:12;;;;;;;7.63;1.97;;;8.40;99.90;;;;;;4995988;28;20197;-58
2021/03/21 11:18:39;;;;;;;8.07;2.40;;;8.50;99.90;;;;;;4996882;28;20719;-56
2021/03/21 11:21:19;;;;;;;8.47;2.30;;;8.60;99.90;;;;;;4993868;28;20208;-58
2021/03/21 11:23:49;;;;;;;6.30;2.00;;;8.60;99.90;;;;;;4993932;28;20208;-57
2021/03/21 11:26:28;;;;;;;6.80;1.63;;;8.60;99.90;;;;;;4990145;28;20709;-58
2021/03/21 11:29:06;;;;;;;9.37;2.00;;;8.60;99.90;;;;;;4981696;28;20596;-56
2021/03/21 11:31:50;;;;;;;12.23;2.87;;;8.60;99.90;;;;;;5000655;28;20165;-55
2021/03/21 11:34:19;;;;;;;10.13;1.83;;;8.60;99.90;;;;;;4992033;28;20243;-58
2021/03/21 11:36:48;;;;;;;6.87;1.87;;;8.60;99.90;;;;;;5003516;28;20204;-58
2021/03/21 11:39:47;;;;;;;9.40;2.17;;;8.70;99.90;;;;;;4995279;28;20195;-58
2021/03/21 11:42:41;;;;;;;9.80;2.50;;;8.70;99.90;;;;;;4989843;28;20226;-59
2021/03/21 11:45:13;;;;;;;7.47;2.17;;;8.80;99.90;;;;;;4987175;28;20200;-59
2021/03/21 11:47:40;;;;;;;7.20;2.27;;;8.90;99.90;;;;;;4993687;28;20219;-58
2021/03/21 11:50:17;;;;;;;9.97;3.07;;;8.90;99.90;;;;;;4991721;28;20188;-59
2021/03/21 11:52:45;;;;;;;7.93;2.20;;;8.90;99.90;;;;;;4991249;28;20665;-58
2021/03/21 11:55:16;;;;;;;8.83;1.73;;;8.90;99.90;;;;;;4994128;28;20177;-55
2021/03/21 11:57:50;;;;;;;9.60;2.10;;;9.00;99.90;;;;;;4997068;28;20216;-58
2021/03/21 12:00:28;;;;;;;6.97;2.43;;;8.90;99.90;;;;;;4988946;28;20213;-57
2021/03/21 12:03:05;;;;;;;6.97;1.80;;;9.00;99.80;;;;;;4988528;28;20216;-59
2021/03/21 12:05:33;;;;;;;9.20;1.83;;;9.10;99.90;;;;;;4999492;28;20188;-59
2021/03/21 12:08:36;;;;;;;7.70;2.10;;;9.20;99.90;;;;;;4990880;28;20227;-56
2021/03/21 12:11:23;;;;;;;9.20;2.43;;;9.30;97.90;;;;;;4999147;28;20180;-56
2021/03/21 12:13:49;;;;;;;6.73;1.70;;;9.40;99.40;;;;;;5001463;28;20177;-57
2021/03/21 12:16:39;;;;;;;5.27;1.47;;;9.40;99.30;;;;;;4987382;28;20202;-55
2021/03/21 12:19:11;;;;;;;5.23;1.23;;;9.40;97.60;;;;;;4994780;28;20192;-54
2021/03/21 12:21:38;;;;;;;9.13;2.00;;;9.50;96.10;;;;;;4986643;28;20189;-57
2021/03/21 12:24:12;;;;;;;4.63;1.60;;;9.40;96.30;;;;;;4990443;28;20650;-56
2021/03/21 12:26:44;;;;;;;7.93;1.63;;;9.40;96.00;;;;;;4994278;28;20204;-57
2021/03/21 12:29:24;;;;;;;8.40;1.97;;;9.50;96.50;;;;;;4987339;28;20703;-56
2021/03/21 12:31:55;;;;;;;7.43;1.80;;;9.60;95.70;;;;;;4973767;28;20189;-55
2021/03/21 12:34:24;;;;;;;6.13;1.93;;;9.50;96.30;;;;;;4997562;28;20256;-54
2021/03/21 12:37:21;;;;;;;7.67;1.77;;;9.50;96.70;;;;;;4994711;28;20283;-55
2021/03/21 12:39:50;;;;;;;7.57;1.93;;;9.50;94.90;;;;;;4997494;28;20197;-55
2021/03/21 12:42:27;;;;;;;6.07;1.67;;;9.60;96.50;;;;;;5007972;28;20262;-52
2021/03/21 12:45:23;;;;;;;7.73;1.77;;;9.60;93.10;;;;;;4982148;28;20204;-55
2021/03/21 12:47:55;;;;;;;4.73;1.67;;;9.60;92.00;;;;;;4975579;28;22237;-54
2021/03/21 12:50:39;;;;;;;6.03;1.60;;;9.60;92.50;;;;;;4996624;28;20199;-55
2021/03/21 12:53:08;;;;;;;7.00;1.30;;;9.70;93.30;;;;;;5001249;28;20192;-55
2021/03/21 12:55:34;;;;;;;3.57;1.20;;;9.80;93.30;;;;;;4993100;28;20258;-58
2021/03/21 12:57:59;;;;;;;4.27;1.00;;;9.80;92.30;;;;;;4995701;28;20201;-57
2021/03/21 13:00:28;;;;;;;6.00;1.00;;;9.80;89.60;;;;;;4998972;28;20193;-56
2021/03/21 13:02:55;;;;;;;4.07;0.90;;;9.80;82.00;;;;;;5004019;28;20211;-56
2021/03/21 13:05:30;;;;;;;4.70;1.10;;;9.80;79.70;;;;;;4991640;28;20276;-53
2021/03/21 13:07:57;;;;;;;1.53;0.87;;;9.80;79.80;;;;;;4988620;28;20219;-55
2021/03/21 13:10:25;;;;;;;2.23;1.00;;;9.90;83.20;;;;;;4997385;28;20181;-58
2021/03/21 13:12:52;;;;;;;4.90;1.20;;;10.00;80.00;;;;;;4995007;28;20333;-57
2021/03/21 13:15:19;;;;;;;7.20;1.50;;;10.00;76.10;;;;;;5001499;28;20653;-53
2021/03/21 13:17:44;;;;;;;3.83;1.10;;;10.00;78.50;;;;;;5002568;28;20210;-54
2021/03/21 13:20:15;;;;;;;4.10;1.10;;;10.00;78.20;;;;;;4990663;28;20197;-54
2021/03/21 13:22:40;;;;;;;3.90;1.10;;;10.00;79.40;;;;;;4995571;28;20226;-57
2021/03/21 13:25:07;;;;;;;5.03;1.00;;;10.10;78.10;;;;;;4995827;28;20189;-56
2021/03/21 13:27:33;;;;;;;3.40;1.00;;;10.20;77.30;;;;;;4998084;28;20701;-58
2021/03/21 13:29:59;;;;;;;3.07;1.10;;;10.20;78.70;;;;;;4997936;28;20267;-54
2021/03/21 13:32:25;;;;;;;5.23;1.10;;;10.30;80.00;;;;;;5003863;28;20727;-57
2021/03/21 13:34:54;;;;;;;4.43;1.20;;;10.90;78.20;;;;;;4986608;28;20795;-54
2021/03/21 13:37:21;;;;;;;4.60;1.13;;;11.00;77.10;;;;;;4996626;28;20205;-51
2021/03/21 13:39:50;;;;;;;3.40;0.97;;;11.30;75.80;;;;;;4986575;28;20243;-58
2021/03/21 13:42:17;;;;;;;5.70;1.47;;;11.20;74.60;;;;;;4996657;28;20270;-58
2021/03/21 13:44:42;;;;;;;4.53;1.63;;;11.20;75.00;;;;;;5001937;28;20263;-57